RJCO(METAR)
12/11 19:00
METAR RJCO 111000Z 17005KT 9999 FEW030 SCT050 BKN200 M03/M07 Q1026
RMK 1CU030 3CU050 5CI200 A3031=
戻る
トップページへ戻る
IMOC Co,.Ltd.